Terminal Aerodrome Forecast
Issued by NWS

Home | Current Version | Previous Version | Text Only | Print | Product List | Glossary On
Versions: 1 2 3 4 5 6 7 8 9 10 11 12 13 14
041
FTUS42 KMLB 220539
TAFLEE
TAF
KLEE 220539Z 2206/2306 18010KT P6SM FEW045 FEW060 BKN090
     FM220800 19008KT P6SM SCT005 BKN030 WS015/22035KT
     FM221300 20012G20KT P6SM SCT015 BKN030
     FM221800 21018G28KT P6SM VCTS BKN035CB
      TEMPO 2220/2222 25020G40KT 2SM +TSRA
     FM230000 23012G18KT P6SM -RA VCTS BKN035CB=

USA.gov is the U.S. government's official web portal to all federal, state and local government web resources and services.